Terminal Aerodrome Forecast
Issued by NWS

Home | Current Version | Previous Version | Text Only | Print | Product List | Glossary On
Versions: 1 2 3 4 5 6 7 8 9 10 11 12 13 14 15 16 17 18
533
FTUS43 KAPX 100525
TAFTVC
TAF
KTVC 100525Z 1006/1106 33012G22KT 2SM -SHSN BLSN SCT015 OVC025
      TEMPO 1006/1010 1/4SM +SHSN BLSN OVC012
     FM101000 33010G23KT 2SM -SHSN BLSN SCT015 OVC025
      TEMPO 1010/1014 1/4SM +SHSN OVC012
     FM101400 34014G24KT 2SM -SHSN BLSN SCT015 OVC025
     FM110200 33010G19KT 3SM -SHSN BLSN SCT015 OVC028=

USA.gov is the U.S. government's official web portal to all federal, state and local government web resources and services.